sensor_id;sensor_type;location;lat;lon;timestamp;temperature;humidity
27781;DHT22;15167;1.318;103.762;2022-12-24T00:01:13;24.80;99.90
27781;DHT22;15167;1.318;103.762;2022-12-24T00:03:39;24.80;99.90
27781;DHT22;15167;1.318;103.762;2022-12-24T00:06:08;24.80;99.90
27781;DHT22;15167;1.318;103.762;2022-12-24T00:08:35;24.80;99.90
27781;DHT22;15167;1.318;103.762;2022-12-24T00:11:01;24.80;99.90
27781;DHT22;15167;1.318;103.762;2022-12-24T00:13:27;24.80;99.90
27781;DHT22;15167;1.318;103.762;2022-12-24T00:15:53;24.80;99.90
27781;DHT22;15167;1.318;103.762;2022-12-24T00:18:19;24.80;99.90
27781;DHT22;15167;1.318;103.762;2022-12-24T00:20:46;24.90;99.90
27781;DHT22;15167;1.318;103.762;2022-12-24T00:23:13;24.90;99.90
27781;DHT22;15167;1.318;103.762;2022-12-24T00:25:39;24.90;99.90
27781;DHT22;15167;1.318;103.762;2022-12-24T00:28:05;25.00;99.90
27781;DHT22;15167;1.318;103.762;2022-12-24T00:30:31;25.00;99.90
27781;DHT22;15167;1.318;103.762;2022-12-24T00:32:57;25.00;99.90
27781;DHT22;15167;1.318;103.762;2022-12-24T00:35:23;25.00;99.90
27781;DHT22;15167;1.318;103.762;2022-12-24T00:37:50;25.00;99.90
27781;DHT22;15167;1.318;103.762;2022-12-24T00:40:16;25.10;99.90
27781;DHT22;15167;1.318;103.762;2022-12-24T00:42:43;25.10;99.90
27781;DHT22;15167;1.318;103.762;2022-12-24T00:45:09;25.20;99.90
27781;DHT22;15167;1.318;103.762;2022-12-24T00:47:36;25.20;99.90
27781;DHT22;15167;1.318;103.762;2022-12-24T00:50:02;25.30;99.90
27781;DHT22;15167;1.318;103.762;2022-12-24T00:52:28;25.30;99.90
27781;DHT22;15167;1.318;103.762;2022-12-24T00:54:54;25.30;99.90
27781;DHT22;15167;1.318;103.762;2022-12-24T00:57:21;25.30;99.90
27781;DHT22;15167;1.318;103.762;2022-12-24T00:59:47;25.40;99.90
27781;DHT22;15167;1.318;103.762;2022-12-24T01:02:13;25.50;99.90
27781;DHT22;15167;1.318;103.762;2022-12-24T01:04:39;25.50;99.90
27781;DHT22;15167;1.318;103.762;2022-12-24T01:07:23;25.50;99.90
27781;DHT22;15167;1.318;103.762;2022-12-24T01:09:49;25.60;99.90
27781;DHT22;15167;1.318;103.762;2022-12-24T01:12:15;25.60;99.90
27781;DHT22;15167;1.318;103.762;2022-12-24T01:14:41;25.70;99.90
27781;DHT22;15167;1.318;103.762;2022-12-24T01:17:08;25.70;99.90
27781;DHT22;15167;1.318;103.762;2022-12-24T01:19:34;25.70;99.90
27781;DHT22;15167;1.318;103.762;2022-12-24T01:22:00;25.80;99.90
27781;DHT22;15167;1.318;103.762;2022-12-24T01:24:26;25.80;99.90
27781;DHT22;15167;1.318;103.762;2022-12-24T01:26:52;25.90;99.90
27781;DHT22;15167;1.318;103.762;2022-12-24T01:29:18;25.90;99.90
27781;DHT22;15167;1.318;103.762;2022-12-24T01:31:44;26.00;99.90
27781;DHT22;15167;1.318;103.762;2022-12-24T01:34:10;25.90;99.90
27781;DHT22;15167;1.318;103.762;2022-12-24T01:36:36;25.90;99.90
27781;DHT22;15167;1.318;103.762;2022-12-24T01:39:03;26.00;99.90
27781;DHT22;15167;1.318;103.762;2022-12-24T01:41:30;26.00;99.90
27781;DHT22;15167;1.318;103.762;2022-12-24T01:44:19;26.00;99.90
27781;DHT22;15167;1.318;103.762;2022-12-24T01:46:45;26.00;99.90
27781;DHT22;15167;1.318;103.762;2022-12-24T01:49:13;26.00;99.90
27781;DHT22;15167;1.318;103.762;2022-12-24T01:51:43;26.10;99.90
27781;DHT22;15167;1.318;103.762;2022-12-24T01:56:39;26.20;99.90
27781;DHT22;15167;1.318;103.762;2022-12-24T01:59:09;26.30;99.90
27781;DHT22;15167;1.318;103.762;2022-12-24T02:01:37;26.30;99.90
27781;DHT22;15167;1.318;103.762;2022-12-24T02:04:04;26.30;99.90
27781;DHT22;15167;1.318;103.762;2022-12-24T02:06:33;26.40;99.90
27781;DHT22;15167;1.318;103.762;2022-12-24T02:08:59;26.40;99.90
27781;DHT22;15167;1.318;103.762;2022-12-24T02:11:25;26.50;99.90
27781;DHT22;15167;1.318;103.762;2022-12-24T02:13:52;26.50;99.90
27781;DHT22;15167;1.318;103.762;2022-12-24T02:18:59;26.70;99.90
27781;DHT22;15167;1.318;103.762;2022-12-24T02:32:09;26.90;99.90
27781;DHT22;15167;1.318;103.762;2022-12-24T02:34:38;27.00;99.90
27781;DHT22;15167;1.318;103.762;2022-12-24T02:39:47;27.10;99.90
27781;DHT22;15167;1.318;103.762;2022-12-24T02:42:16;27.20;99.90
27781;DHT22;15167;1.318;103.762;2022-12-24T02:44:47;27.20;99.90
27781;DHT22;15167;1.318;103.762;2022-12-24T02:47:14;27.40;99.90
27781;DHT22;15167;1.318;103.762;2022-12-24T02:49:43;27.30;99.90
27781;DHT22;15167;1.318;103.762;2022-12-24T02:54:54;27.20;99.90
27781;DHT22;15167;1.318;103.762;2022-12-24T02:57:27;27.10;99.90
27781;DHT22;15167;1.318;103.762;2022-12-24T02:59:58;27.20;99.90
27781;DHT22;15167;1.318;103.762;2022-12-24T03:07:28;27.30;99.90
27781;DHT22;15167;1.318;103.762;2022-12-24T03:10:12;27.20;99.90
27781;DHT22;15167;1.318;103.762;2022-12-24T03:12:47;27.20;99.90
27781;DHT22;15167;1.318;103.762;2022-12-24T03:15:15;27.30;99.90
27781;DHT22;15167;1.318;103.762;2022-12-24T03:17:44;27.30;99.90
27781;DHT22;15167;1.318;103.762;2022-12-24T03:20:11;27.30;99.90
27781;DHT22;15167;1.318;103.762;2022-12-24T03:22:39;27.40;99.90
27781;DHT22;15167;1.318;103.762;2022-12-24T03:25:06;27.40;99.90
27781;DHT22;15167;1.318;103.762;2022-12-24T03:27:32;27.30;99.90
27781;DHT22;15167;1.318;103.762;2022-12-24T03:29:59;27.40;99.90
27781;DHT22;15167;1.318;103.762;2022-12-24T03:32:30;27.50;99.90
27781;DHT22;15167;1.318;103.762;2022-12-24T03:34:57;27.50;99.90
27781;DHT22;15167;1.318;103.762;2022-12-24T03:37:23;27.50;99.90
27781;DHT22;15167;1.318;103.762;2022-12-24T03:39:50;27.70;99.90
27781;DHT22;15167;1.318;103.762;2022-12-24T03:42:16;27.80;99.90
27781;DHT22;15167;1.318;103.762;2022-12-24T03:44:42;28.00;99.90
27781;DHT22;15167;1.318;103.762;2022-12-24T03:47:08;28.00;99.90
27781;DHT22;15167;1.318;103.762;2022-12-24T03:49:34;27.90;99.90
27781;DHT22;15167;1.318;103.762;2022-12-24T03:52:00;27.90;99.90
27781;DHT22;15167;1.318;103.762;2022-12-24T03:54:27;27.80;99.90
27781;DHT22;15167;1.318;103.762;2022-12-24T03:56:53;27.80;99.90
27781;DHT22;15167;1.318;103.762;2022-12-24T03:59:19;27.80;99.90
27781;DHT22;15167;1.318;103.762;2022-12-24T04:01:45;27.90;99.90
27781;DHT22;15167;1.318;103.762;2022-12-24T04:04:11;28.10;99.90
27781;DHT22;15167;1.318;103.762;2022-12-24T04:06:37;28.10;99.90
27781;DHT22;15167;1.318;103.762;2022-12-24T04:09:03;28.10;99.90
27781;DHT22;15167;1.318;103.762;2022-12-24T04:11:30;28.10;99.90
27781;DHT22;15167;1.318;103.762;2022-12-24T04:13:56;28.20;99.90
27781;DHT22;15167;1.318;103.762;2022-12-24T04:16:23;28.20;99.90
27781;DHT22;15167;1.318;103.762;2022-12-24T04:18:49;28.40;99.90
27781;DHT22;15167;1.318;103.762;2022-12-24T04:21:15;28.50;99.90
27781;DHT22;15167;1.318;103.762;2022-12-24T04:23:41;28.70;99.90
27781;DHT22;15167;1.318;103.762;2022-12-24T04:26:08;28.70;99.90
27781;DHT22;15167;1.318;103.762;2022-12-24T04:28:35;28.80;99.90
27781;DHT22;15167;1.318;103.762;2022-12-24T04:31:02;28.60;99.90
27781;DHT22;15167;1.318;103.762;2022-12-24T04:33:29;28.50;99.90
27781;DHT22;15167;1.318;103.762;2022-12-24T04:35:59;28.50;99.90
27781;DHT22;15167;1.318;103.762;2022-12-24T04:38:25;28.40;99.90
27781;DHT22;15167;1.318;103.762;2022-12-24T04:41:13;28.20;99.90
27781;DHT22;15167;1.318;103.762;2022-12-24T04:43:38;28.20;99.90
27781;DHT22;15167;1.318;103.762;2022-12-24T04:46:05;28.30;99.90
27781;DHT22;15167;1.318;103.762;2022-12-24T04:48:31;28.50;99.90
27781;DHT22;15167;1.318;103.762;2022-12-24T04:50:59;28.60;99.90
27781;DHT22;15167;1.318;103.762;2022-12-24T04:53:25;28.80;99.90
27781;DHT22;15167;1.318;103.762;2022-12-24T04:55:51;28.80;99.90
27781;DHT22;15167;1.318;103.762;2022-12-24T04:58:17;28.90;99.90
27781;DHT22;15167;1.318;103.762;2022-12-24T05:00:43;28.60;99.90
27781;DHT22;15167;1.318;103.762;2022-12-24T05:03:09;28.50;99.90
27781;DHT22;15167;1.318;103.762;2022-12-24T05:05:35;28.50;99.90
27781;DHT22;15167;1.318;103.762;2022-12-24T05:08:02;28.60;99.90
27781;DHT22;15167;1.318;103.762;2022-12-24T05:10:28;28.60;99.90
27781;DHT22;15167;1.318;103.762;2022-12-24T05:12:54;28.70;99.90
27781;DHT22;15167;1.318;103.762;2022-12-24T05:15:20;28.70;99.90
27781;DHT22;15167;1.318;103.762;2022-12-24T05:17:46;28.70;99.90
27781;DHT22;15167;1.318;103.762;2022-12-24T05:20:12;28.70;99.90
27781;DHT22;15167;1.318;103.762;2022-12-24T05:22:39;28.70;99.90
27781;DHT22;15167;1.318;103.762;2022-12-24T05:25:23;28.70;99.90
27781;DHT22;15167;1.318;103.762;2022-12-24T05:28:08;28.70;99.90
27781;DHT22;15167;1.318;103.762;2022-12-24T05:30:34;28.70;99.90
27781;DHT22;15167;1.318;103.762;2022-12-24T05:33:00;28.70;99.90
27781;DHT22;15167;1.318;103.762;2022-12-24T05:35:26;28.70;99.90
27781;DHT22;15167;1.318;103.762;2022-12-24T05:37:56;28.90;99.90
27781;DHT22;15167;1.318;103.762;2022-12-24T05:40:22;28.90;99.90
27781;DHT22;15167;1.318;103.762;2022-12-24T05:42:48;28.90;99.90
27781;DHT22;15167;1.318;103.762;2022-12-24T05:45:15;28.90;99.90
27781;DHT22;15167;1.318;103.762;2022-12-24T05:47:41;28.90;99.90
27781;DHT22;15167;1.318;103.762;2022-12-24T05:50:07;29.00;99.90
27781;DHT22;15167;1.318;103.762;2022-12-24T05:52:33;28.90;99.90
27781;DHT22;15167;1.318;103.762;2022-12-24T05:55:00;28.80;99.90
27781;DHT22;15167;1.318;103.762;2022-12-24T05:57:26;28.70;99.90
27781;DHT22;15167;1.318;103.762;2022-12-24T05:59:52;28.80;99.90
27781;DHT22;15167;1.318;103.762;2022-12-24T06:02:18;28.80;99.90
27781;DHT22;15167;1.318;103.762;2022-12-24T06:04:44;29.00;99.90
27781;DHT22;15167;1.318;103.762;2022-12-24T06:07:10;29.10;99.90
27781;DHT22;15167;1.318;103.762;2022-12-24T06:09:36;29.20;99.90
27781;DHT22;15167;1.318;103.762;2022-12-24T06:12:02;29.10;99.90
27781;DHT22;15167;1.318;103.762;2022-12-24T06:14:28;29.00;99.90
27781;DHT22;15167;1.318;103.762;2022-12-24T06:16:55;29.00;99.90
27781;DHT22;15167;1.318;103.762;2022-12-24T06:19:21;28.90;99.90
27781;DHT22;15167;1.318;103.762;2022-12-24T06:21:47;28.80;99.90
27781;DHT22;15167;1.318;103.762;2022-12-24T06:24:13;28.80;99.90
27781;DHT22;15167;1.318;103.762;2022-12-24T06:26:40;28.80;99.90
27781;DHT22;15167;1.318;103.762;2022-12-24T06:29:06;28.90;99.90
27781;DHT22;15167;1.318;103.762;2022-12-24T06:31:32;28.90;99.90
27781;DHT22;15167;1.318;103.762;2022-12-24T06:33:59;28.80;99.90
27781;DHT22;15167;1.318;103.762;2022-12-24T06:36:25;28.70;99.90
27781;DHT22;15167;1.318;103.762;2022-12-24T06:38:52;28.80;99.90
27781;DHT22;15167;1.318;103.762;2022-12-24T06:41:18;28.80;99.90
27781;DHT22;15167;1.318;103.762;2022-12-24T06:43:45;28.90;99.90
27781;DHT22;15167;1.318;103.762;2022-12-24T06:46:12;29.00;99.90
27781;DHT22;15167;1.318;103.762;2022-12-24T06:48:38;29.00;99.90
27781;DHT22;15167;1.318;103.762;2022-12-24T06:51:04;29.00;99.90
27781;DHT22;15167;1.318;103.762;2022-12-24T06:53:31;28.80;99.90
27781;DHT22;15167;1.318;103.762;2022-12-24T06:56:04;28.70;99.90
27781;DHT22;15167;1.318;103.762;2022-12-24T06:58:30;28.60;99.90
27781;DHT22;15167;1.318;103.762;2022-12-24T07:00:56;28.70;99.90
27781;DHT22;15167;1.318;103.762;2022-12-24T07:03:22;28.60;99.90
27781;DHT22;15167;1.318;103.762;2022-12-24T07:05:48;28.50;99.90
27781;DHT22;15167;1.318;103.762;2022-12-24T07:08:14;28.60;99.90
27781;DHT22;15167;1.318;103.762;2022-12-24T07:10:40;28.60;99.90
27781;DHT22;15167;1.318;103.762;2022-12-24T07:13:06;28.70;99.90
27781;DHT22;15167;1.318;103.762;2022-12-24T07:15:33;28.60;99.90
27781;DHT22;15167;1.318;103.762;2022-12-24T07:17:59;28.60;99.90
27781;DHT22;15167;1.318;103.762;2022-12-24T07:20:25;28.60;99.90
27781;DHT22;15167;1.318;103.762;2022-12-24T07:22:51;28.60;99.90
27781;DHT22;15167;1.318;103.762;2022-12-24T07:25:17;28.60;99.90
27781;DHT22;15167;1.318;103.762;2022-12-24T07:27:43;28.60;99.90
27781;DHT22;15167;1.318;103.762;2022-12-24T07:30:09;28.70;99.90
27781;DHT22;15167;1.318;103.762;2022-12-24T07:32:35;28.70;99.90
27781;DHT22;15167;1.318;103.762;2022-12-24T07:35:02;28.70;99.90
27781;DHT22;15167;1.318;103.762;2022-12-24T07:37:28;28.80;99.90
27781;DHT22;15167;1.318;103.762;2022-12-24T07:39:54;28.90;99.30
27781;DHT22;15167;1.318;103.762;2022-12-24T07:42:20;29.10;99.40
27781;DHT22;15167;1.318;103.762;2022-12-24T07:44:46;29.20;97.60
27781;DHT22;15167;1.318;103.762;2022-12-24T07:47:12;29.20;98.30
27781;DHT22;15167;1.318;103.762;2022-12-24T07:49:39;29.20;97.50
27781;DHT22;15167;1.318;103.762;2022-12-24T07:52:05;29.10;97.10
27781;DHT22;15167;1.318;103.762;2022-12-24T07:54:31;29.20;97.90
27781;DHT22;15167;1.318;103.762;2022-12-24T07:56:57;29.30;98.30
27781;DHT22;15167;1.318;103.762;2022-12-24T07:59:23;29.30;98.00
27781;DHT22;15167;1.318;103.762;2022-12-24T08:01:49;29.20;97.80
27781;DHT22;15167;1.318;103.762;2022-12-24T08:04:15;29.30;98.00
27781;DHT22;15167;1.318;103.762;2022-12-24T08:06:41;29.30;96.90
27781;DHT22;15167;1.318;103.762;2022-12-24T08:09:07;29.20;97.10
27781;DHT22;15167;1.318;103.762;2022-12-24T08:11:33;29.10;98.40
27781;DHT22;15167;1.318;103.762;2022-12-24T08:14:00;29.20;98.50
27781;DHT22;15167;1.318;103.762;2022-12-24T08:16:26;29.30;98.40
27781;DHT22;15167;1.318;103.762;2022-12-24T08:18:52;29.30;97.90
27781;DHT22;15167;1.318;103.762;2022-12-24T08:21:18;29.30;97.70
27781;DHT22;15167;1.318;103.762;2022-12-24T08:23:45;29.30;97.80
27781;DHT22;15167;1.318;103.762;2022-12-24T08:26:11;29.30;97.60
27781;DHT22;15167;1.318;103.762;2022-12-24T08:28:37;29.30;96.70
27781;DHT22;15167;1.318;103.762;2022-12-24T08:31:04;29.20;96.80
27781;DHT22;15167;1.318;103.762;2022-12-24T08:33:30;29.20;96.00
27781;DHT22;15167;1.318;103.762;2022-12-24T08:35:56;29.00;96.70
27781;DHT22;15167;1.318;103.762;2022-12-24T08:38:22;29.10;96.50
27781;DHT22;15167;1.318;103.762;2022-12-24T08:40:49;29.20;96.60
27781;DHT22;15167;1.318;103.762;2022-12-24T08:43:17;29.10;95.60
27781;DHT22;15167;1.318;103.762;2022-12-24T08:45:44;29.10;94.50
27781;DHT22;15167;1.318;103.762;2022-12-24T08:48:11;29.20;94.70
27781;DHT22;15167;1.318;103.762;2022-12-24T08:50:39;29.10;94.90
27781;DHT22;15167;1.318;103.762;2022-12-24T08:53:05;29.10;95.10
27781;DHT22;15167;1.318;103.762;2022-12-24T08:55:31;29.20;95.40
27781;DHT22;15167;1.318;103.762;2022-12-24T08:57:58;29.10;95.70
27781;DHT22;15167;1.318;103.762;2022-12-24T09:00:24;29.00;94.90
27781;DHT22;15167;1.318;103.762;2022-12-24T09:02:50;29.00;95.40
27781;DHT22;15167;1.318;103.762;2022-12-24T09:05:17;29.00;94.40
27781;DHT22;15167;1.318;103.762;2022-12-24T09:07:43;29.00;94.90
27781;DHT22;15167;1.318;103.762;2022-12-24T09:10:10;29.00;94.90
27781;DHT22;15167;1.318;103.762;2022-12-24T09:12:36;29.00;95.30
27781;DHT22;15167;1.318;103.762;2022-12-24T09:15:02;28.90;95.20
27781;DHT22;15167;1.318;103.762;2022-12-24T09:17:30;28.80;96.20
27781;DHT22;15167;1.318;103.762;2022-12-24T09:19:56;28.80;95.10
27781;DHT22;15167;1.318;103.762;2022-12-24T09:22:22;28.80;95.60
27781;DHT22;15167;1.318;103.762;2022-12-24T09:24:48;28.70;94.50
27781;DHT22;15167;1.318;103.762;2022-12-24T09:27:14;28.70;93.90
27781;DHT22;15167;1.318;103.762;2022-12-24T09:29:40;28.70;94.10
27781;DHT22;15167;1.318;103.762;2022-12-24T09:32:07;28.60;94.00
27781;DHT22;15167;1.318;103.762;2022-12-24T09:34:33;28.40;94.60
27781;DHT22;15167;1.318;103.762;2022-12-24T09:36:59;28.40;94.00
27781;DHT22;15167;1.318;103.762;2022-12-24T09:39:27;28.40;94.50
27781;DHT22;15167;1.318;103.762;2022-12-24T09:47:38;28.30;96.00
27781;DHT22;15167;1.318;103.762;2022-12-24T09:49:57;28.30;96.30
27781;DHT22;15167;1.318;103.762;2022-12-24T09:52:37;28.10;97.40
27781;DHT22;15167;1.318;103.762;2022-12-24T09:55:21;28.00;97.90
27781;DHT22;15167;1.318;103.762;2022-12-24T09:57:48;28.00;97.80
27781;DHT22;15167;1.318;103.762;2022-12-24T10:00:17;28.00;98.30
27781;DHT22;15167;1.318;103.762;2022-12-24T10:02:44;28.00;98.20
27781;DHT22;15167;1.318;103.762;2022-12-24T10:05:12;28.00;98.30
27781;DHT22;15167;1.318;103.762;2022-12-24T10:10:36;27.90;98.50
27781;DHT22;15167;1.318;103.762;2022-12-24T10:21:15;27.70;99.90
27781;DHT22;15167;1.318;103.762;2022-12-24T10:23:50;27.70;99.90
27781;DHT22;15167;1.318;103.762;2022-12-24T10:29:17;27.60;99.90
27781;DHT22;15167;1.318;103.762;2022-12-24T10:31:49;27.60;99.90
27781;DHT22;15167;1.318;103.762;2022-12-24T10:34:21;27.60;99.90
27781;DHT22;15167;1.318;103.762;2022-12-24T10:36:48;27.50;99.90
27781;DHT22;15167;1.318;103.762;2022-12-24T10:39:21;27.50;99.90
27781;DHT22;15167;1.318;103.762;2022-12-24T10:41:51;27.50;99.90
27781;DHT22;15167;1.318;103.762;2022-12-24T10:44:20;27.50;99.90
27781;DHT22;15167;1.318;103.762;2022-12-24T10:46:46;27.40;99.90
27781;DHT22;15167;1.318;103.762;2022-12-24T10:49:17;27.40;99.90
27781;DHT22;15167;1.318;103.762;2022-12-24T10:54:14;27.40;99.90
27781;DHT22;15167;1.318;103.762;2022-12-24T10:56:42;27.40;99.90
27781;DHT22;15167;1.318;103.762;2022-12-24T10:59:21;27.30;99.90
27781;DHT22;15167;1.318;103.762;2022-12-24T11:01:48;27.20;99.90
27781;DHT22;15167;1.318;103.762;2022-12-24T11:04:15;27.20;99.90
27781;DHT22;15167;1.318;103.762;2022-12-24T11:06:58;27.20;99.90
27781;DHT22;15167;1.318;103.762;2022-12-24T11:09:29;27.10;99.90
27781;DHT22;15167;1.318;103.762;2022-12-24T11:11:56;27.00;99.90
27781;DHT22;15167;1.318;103.762;2022-12-24T11:14:22;26.90;99.90
27781;DHT22;15167;1.318;103.762;2022-12-24T11:16:53;26.90;99.90
27781;DHT22;15167;1.318;103.762;2022-12-24T11:19:28;26.80;99.90
27781;DHT22;15167;1.318;103.762;2022-12-24T11:22:05;26.80;99.90
27781;DHT22;15167;1.318;103.762;2022-12-24T11:24:32;26.80;99.90
27781;DHT22;15167;1.318;103.762;2022-12-24T11:27:44;26.70;99.90
27781;DHT22;15167;1.318;103.762;2022-12-24T11:29:45;26.70;99.90
27781;DHT22;15167;1.318;103.762;2022-12-24T11:32:18;26.70;99.90
27781;DHT22;15167;1.318;103.762;2022-12-24T11:34:45;26.70;99.90
27781;DHT22;15167;1.318;103.762;2022-12-24T11:37:16;26.60;99.90
27781;DHT22;15167;1.318;103.762;2022-12-24T11:39:48;26.60;99.90
27781;DHT22;15167;1.318;103.762;2022-12-24T11:42:25;26.60;99.90
27781;DHT22;15167;1.318;103.762;2022-12-24T11:44:52;26.60;99.90
27781;DHT22;15167;1.318;103.762;2022-12-24T11:47:30;26.50;99.90
27781;DHT22;15167;1.318;103.762;2022-12-24T11:50:10;26.50;99.90
27781;DHT22;15167;1.318;103.762;2022-12-24T11:52:42;26.50;99.90
27781;DHT22;15167;1.318;103.762;2022-12-24T11:55:20;26.40;99.90
27781;DHT22;15167;1.318;103.762;2022-12-24T12:00:15;26.40;99.90
27781;DHT22;15167;1.318;103.762;2022-12-24T12:02:42;26.40;99.90
27781;DHT22;15167;1.318;103.762;2022-12-24T12:05:12;26.30;99.90
27781;DHT22;15167;1.318;103.762;2022-12-24T12:07:40;26.40;99.90
27781;DHT22;15167;1.318;103.762;2022-12-24T12:12:46;26.40;99.90
27781;DHT22;15167;1.318;103.762;2022-12-24T12:15:21;26.30;99.90
27781;DHT22;15167;1.318;103.762;2022-12-24T12:20:29;26.30;99.90
27781;DHT22;15167;1.318;103.762;2022-12-24T12:25:32;26.20;99.90
27781;DHT22;15167;1.318;103.762;2022-12-24T12:28:01;26.30;99.90
27781;DHT22;15167;1.318;103.762;2022-12-24T12:30:28;26.30;99.90
27781;DHT22;15167;1.318;103.762;2022-12-24T12:33:03;26.20;99.90
27781;DHT22;15167;1.318;103.762;2022-12-24T12:35:35;26.10;99.90
27781;DHT22;15167;1.318;103.762;2022-12-24T12:38:04;26.00;99.90
27781;DHT22;15167;1.318;103.762;2022-12-24T12:40:43;26.10;99.90
27781;DHT22;15167;1.318;103.762;2022-12-24T12:43:23;26.10;99.90
27781;DHT22;15167;1.318;103.762;2022-12-24T12:45:54;26.10;99.90
27781;DHT22;15167;1.318;103.762;2022-12-24T12:48:26;26.10;99.90
27781;DHT22;15167;1.318;103.762;2022-12-24T12:56:12;26.00;99.90
27781;DHT22;15167;1.318;103.762;2022-12-24T13:01:32;26.10;99.90
27781;DHT22;15167;1.318;103.762;2022-12-24T13:11:48;26.10;99.90
27781;DHT22;15167;1.318;103.762;2022-12-24T13:22:13;26.10;99.90
27781;DHT22;15167;1.318;103.762;2022-12-24T13:24:40;26.10;99.90
27781;DHT22;15167;1.318;103.762;2022-12-24T13:27:19;26.10;99.90
27781;DHT22;15167;1.318;103.762;2022-12-24T13:37:20;26.00;99.90
27781;DHT22;15167;1.318;103.762;2022-12-24T13:47:54;25.90;99.90
27781;DHT22;15167;1.318;103.762;2022-12-24T13:53:05;25.80;99.90
27781;DHT22;15167;1.318;103.762;2022-12-24T13:55:32;25.80;99.90
27781;DHT22;15167;1.318;103.762;2022-12-24T13:58:00;25.70;99.90
27781;DHT22;15167;1.318;103.762;2022-12-24T14:02:59;25.70;99.90
27781;DHT22;15167;1.318;103.762;2022-12-24T14:05:36;25.70;99.90
27781;DHT22;15167;1.318;103.762;2022-12-24T14:08:04;25.70;99.90
27781;DHT22;15167;1.318;103.762;2022-12-24T14:10:38;25.70;99.90
27781;DHT22;15167;1.318;103.762;2022-12-24T14:13:05;25.70;99.90
27781;DHT22;15167;1.318;103.762;2022-12-24T14:15:58;25.70;99.90
27781;DHT22;15167;1.318;103.762;2022-12-24T14:18:26;25.60;99.90
27781;DHT22;15167;1.318;103.762;2022-12-24T14:20:53;25.60;99.90
27781;DHT22;15167;1.318;103.762;2022-12-24T14:23:27;25.60;99.90
27781;DHT22;15167;1.318;103.762;2022-12-24T14:25:55;25.60;99.90
27781;DHT22;15167;1.318;103.762;2022-12-24T14:28:23;25.60;99.90
27781;DHT22;15167;1.318;103.762;2022-12-24T14:31:01;25.60;99.90
27781;DHT22;15167;1.318;103.762;2022-12-24T14:33:32;25.50;99.90
27781;DHT22;15167;1.318;103.762;2022-12-24T14:35:58;25.50;99.90
27781;DHT22;15167;1.318;103.762;2022-12-24T14:38:25;25.50;99.90
27781;DHT22;15167;1.318;103.762;2022-12-24T14:46:14;25.60;99.90
27781;DHT22;15167;1.318;103.762;2022-12-24T14:48:51;25.60;99.90
27781;DHT22;15167;1.318;103.762;2022-12-24T14:54:32;25.60;99.90
27781;DHT22;15167;1.318;103.762;2022-12-24T14:57:32;25.50;99.90
27781;DHT22;15167;1.318;103.762;2022-12-24T14:59:58;25.50;99.90
27781;DHT22;15167;1.318;103.762;2022-12-24T15:02:34;25.40;99.90
27781;DHT22;15167;1.318;103.762;2022-12-24T15:05:03;25.40;99.90
27781;DHT22;15167;1.318;103.762;2022-12-24T15:07:30;25.40;99.90
27781;DHT22;15167;1.318;103.762;2022-12-24T15:09:57;25.40;99.90
27781;DHT22;15167;1.318;103.762;2022-12-24T15:12:23;25.50;99.90
27781;DHT22;15167;1.318;103.762;2022-12-24T15:14:49;25.50;99.90
27781;DHT22;15167;1.318;103.762;2022-12-24T15:17:15;25.50;99.90
27781;DHT22;15167;1.318;103.762;2022-12-24T15:19:42;25.50;99.90
27781;DHT22;15167;1.318;103.762;2022-12-24T15:22:28;25.50;99.90
27781;DHT22;15167;1.318;103.762;2022-12-24T15:24:56;25.50;99.90
27781;DHT22;15167;1.318;103.762;2022-12-24T15:27:23;25.50;99.90
27781;DHT22;15167;1.318;103.762;2022-12-24T15:29:51;25.50;99.90
27781;DHT22;15167;1.318;103.762;2022-12-24T15:32:19;25.40;99.90
27781;DHT22;15167;1.318;103.762;2022-12-24T15:34:46;25.40;99.90
27781;DHT22;15167;1.318;103.762;2022-12-24T15:39:41;25.40;99.90
27781;DHT22;15167;1.318;103.762;2022-12-24T15:42:09;25.40;99.90
27781;DHT22;15167;1.318;103.762;2022-12-24T15:45:21;25.40;99.90
27781;DHT22;15167;1.318;103.762;2022-12-24T15:47:35;25.40;99.90
27781;DHT22;15167;1.318;103.762;2022-12-24T15:50:03;25.40;99.90
27781;DHT22;15167;1.318;103.762;2022-12-24T15:52:30;25.40;99.90
27781;DHT22;15167;1.318;103.762;2022-12-24T15:54:56;25.40;99.90
27781;DHT22;15167;1.318;103.762;2022-12-24T15:57:29;25.40;99.90
27781;DHT22;15167;1.318;103.762;2022-12-24T15:59:56;25.30;99.90
27781;DHT22;15167;1.318;103.762;2022-12-24T16:02:38;25.40;99.90
27781;DHT22;15167;1.318;103.762;2022-12-24T16:08:06;25.30;99.90
27781;DHT22;15167;1.318;103.762;2022-12-24T16:10:39;25.30;99.90
27781;DHT22;15167;1.318;103.762;2022-12-24T16:13:17;25.30;99.90
27781;DHT22;15167;1.318;103.762;2022-12-24T16:15:50;25.20;99.90
27781;DHT22;15167;1.318;103.762;2022-12-24T16:18:19;25.30;99.90
27781;DHT22;15167;1.318;103.762;2022-12-24T16:20:48;25.30;99.90
27781;DHT22;15167;1.318;103.762;2022-12-24T16:23:21;25.30;99.90
27781;DHT22;15167;1.318;103.762;2022-12-24T16:25:48;25.30;99.90
27781;DHT22;15167;1.318;103.762;2022-12-24T16:28:15;25.30;99.90
27781;DHT22;15167;1.318;103.762;2022-12-24T16:30:42;25.30;99.90
27781;DHT22;15167;1.318;103.762;2022-12-24T16:33:15;25.40;99.90
27781;DHT22;15167;1.318;103.762;2022-12-24T16:35:42;25.30;99.90
27781;DHT22;15167;1.318;103.762;2022-12-24T16:38:09;25.30;99.90
27781;DHT22;15167;1.318;103.762;2022-12-24T16:40:36;25.30;99.90
27781;DHT22;15167;1.318;103.762;2022-12-24T16:43:02;25.30;99.90
27781;DHT22;15167;1.318;103.762;2022-12-24T16:45:46;25.20;99.90
27781;DHT22;15167;1.318;103.762;2022-12-24T16:48:19;25.20;99.90
27781;DHT22;15167;1.318;103.762;2022-12-24T16:50:46;25.20;99.90
27781;DHT22;15167;1.318;103.762;2022-12-24T16:53:13;25.20;99.90
27781;DHT22;15167;1.318;103.762;2022-12-24T16:55:39;25.20;99.90
27781;DHT22;15167;1.318;103.762;2022-12-24T16:58:05;25.20;99.90
27781;DHT22;15167;1.318;103.762;2022-12-24T17:00:31;25.20;99.90
27781;DHT22;15167;1.318;103.762;2022-12-24T17:02:57;25.10;99.90
27781;DHT22;15167;1.318;103.762;2022-12-24T17:05:23;25.20;99.90
27781;DHT22;15167;1.318;103.762;2022-12-24T17:07:49;25.20;99.90
27781;DHT22;15167;1.318;103.762;2022-12-24T17:10:16;25.20;99.90
27781;DHT22;15167;1.318;103.762;2022-12-24T17:12:42;25.20;99.90
27781;DHT22;15167;1.318;103.762;2022-12-24T17:15:08;25.10;99.90
27781;DHT22;15167;1.318;103.762;2022-12-24T17:17:35;25.20;99.90
27781;DHT22;15167;1.318;103.762;2022-12-24T17:20:01;25.10;99.90